sensor_id;sensor_type;location;lat;lon;timestamp;P1;durP1;ratioP1;P2;durP2;ratioP2
53389;SDS011;39288;42.970;1.524;2023-01-08T00:00:54;14.90;;;8.63;;
53389;SDS011;39288;42.970;1.524;2023-01-08T00:01:58;13.60;;;7.47;;
53389;SDS011;39288;42.970;1.524;2023-01-08T00:03:00;12.05;;;7.63;;
53389;SDS011;39288;42.970;1.524;2023-01-08T00:04:01;11.80;;;7.63;;
53389;SDS011;39288;42.970;1.524;2023-01-08T00:05:01;6.95;;;4.97;;
53389;SDS011;39288;42.970;1.524;2023-01-08T00:06:02;9.07;;;5.70;;
53389;SDS011;39288;42.970;1.524;2023-01-08T00:07:04;9.52;;;5.70;;
53389;SDS011;39288;42.970;1.524;2023-01-08T00:08:05;8.97;;;5.07;;
53389;SDS011;39288;42.970;1.524;2023-01-08T00:09:08;6.78;;;4.40;;
53389;SDS011;39288;42.970;1.524;2023-01-08T00:11:09;8.38;;;4.57;;
53389;SDS011;39288;42.970;1.524;2023-01-08T00:12:10;10.32;;;6.35;;
53389;SDS011;39288;42.970;1.524;2023-01-08T00:13:11;10.47;;;5.50;;
53389;SDS011;39288;42.970;1.524;2023-01-08T00:14:11;11.17;;;6.07;;
53389;SDS011;39288;42.970;1.524;2023-01-08T00:15:12;10.87;;;6.00;;
53389;SDS011;39288;42.970;1.524;2023-01-08T00:16:13;11.20;;;6.77;;
53389;SDS011;39288;42.970;1.524;2023-01-08T00:17:15;8.95;;;6.10;;
53389;SDS011;39288;42.970;1.524;2023-01-08T00:18:16;10.97;;;6.20;;
53389;SDS011;39288;42.970;1.524;2023-01-08T00:19:16;9.93;;;5.77;;
53389;SDS011;39288;42.970;1.524;2023-01-08T00:20:16;10.50;;;5.20;;
53389;SDS011;39288;42.970;1.524;2023-01-08T00:21:17;7.77;;;4.40;;
53389;SDS011;39288;42.970;1.524;2023-01-08T00:22:17;7.38;;;4.63;;
53389;SDS011;39288;42.970;1.524;2023-01-08T00:23:18;9.60;;;5.83;;
53389;SDS011;39288;42.970;1.524;2023-01-08T00:24:19;10.95;;;5.47;;
53389;SDS011;39288;42.970;1.524;2023-01-08T00:25:20;9.90;;;5.73;;
53389;SDS011;39288;42.970;1.524;2023-01-08T00:26:20;9.80;;;6.20;;
53389;SDS011;39288;42.970;1.524;2023-01-08T00:27:21;13.17;;;6.87;;
53389;SDS011;39288;42.970;1.524;2023-01-08T00:28:21;14.80;;;8.23;;
53389;SDS011;39288;42.970;1.524;2023-01-08T00:29:22;15.63;;;8.13;;
53389;SDS011;39288;42.970;1.524;2023-01-08T00:30:22;12.30;;;7.13;;
53389;SDS011;39288;42.970;1.524;2023-01-08T00:31:23;11.63;;;6.97;;
53389;SDS011;39288;42.970;1.524;2023-01-08T00:32:23;8.80;;;5.90;;
53389;SDS011;39288;42.970;1.524;2023-01-08T00:33:24;7.53;;;5.13;;
53389;SDS011;39288;42.970;1.524;2023-01-08T00:34:24;9.03;;;5.17;;
53389;SDS011;39288;42.970;1.524;2023-01-08T00:35:25;7.97;;;4.97;;
53389;SDS011;39288;42.970;1.524;2023-01-08T00:36:25;9.20;;;5.57;;
53389;SDS011;39288;42.970;1.524;2023-01-08T00:37:26;10.60;;;6.67;;
53389;SDS011;39288;42.970;1.524;2023-01-08T00:38:27;27.25;;;16.73;;
53389;SDS011;39288;42.970;1.524;2023-01-08T00:39:28;32.28;;;19.02;;
53389;SDS011;39288;42.970;1.524;2023-01-08T00:40:28;28.03;;;16.43;;
53389;SDS011;39288;42.970;1.524;2023-01-08T00:41:29;26.63;;;16.00;;
53389;SDS011;39288;42.970;1.524;2023-01-08T00:42:29;19.50;;;11.37;;
53389;SDS011;39288;42.970;1.524;2023-01-08T00:43:30;14.40;;;7.35;;
53389;SDS011;39288;42.970;1.524;2023-01-08T00:44:30;13.33;;;8.40;;
53389;SDS011;39288;42.970;1.524;2023-01-08T00:45:31;13.00;;;7.97;;
53389;SDS011;39288;42.970;1.524;2023-01-08T00:46:31;9.80;;;6.70;;
53389;SDS011;39288;42.970;1.524;2023-01-08T00:47:32;8.33;;;5.50;;
53389;SDS011;39288;42.970;1.524;2023-01-08T00:48:32;8.30;;;5.57;;
53389;SDS011;39288;42.970;1.524;2023-01-08T00:49:37;111.38;;;60.78;;
53389;SDS011;39288;42.970;1.524;2023-01-08T00:50:38;158.47;;;103.30;;
53389;SDS011;39288;42.970;1.524;2023-01-08T00:51:39;102.90;;;67.77;;
53389;SDS011;39288;42.970;1.524;2023-01-08T00:52:41;24.38;;;16.90;;
53389;SDS011;39288;42.970;1.524;2023-01-08T00:53:42;25.37;;;17.50;;
53389;SDS011;39288;42.970;1.524;2023-01-08T00:54:42;23.53;;;15.10;;
53389;SDS011;39288;42.970;1.524;2023-01-08T00:55:43;25.03;;;16.87;;
53389;SDS011;39288;42.970;1.524;2023-01-08T00:56:43;23.70;;;15.87;;
53389;SDS011;39288;42.970;1.524;2023-01-08T00:57:44;16.60;;;12.20;;
53389;SDS011;39288;42.970;1.524;2023-01-08T00:58:44;16.13;;;10.93;;
53389;SDS011;39288;42.970;1.524;2023-01-08T00:59:45;15.03;;;10.30;;
53389;SDS011;39288;42.970;1.524;2023-01-08T01:00:45;11.27;;;8.70;;
53389;SDS011;39288;42.970;1.524;2023-01-08T01:01:46;9.53;;;6.80;;
53389;SDS011;39288;42.970;1.524;2023-01-08T01:02:47;9.10;;;6.63;;
53389;SDS011;39288;42.970;1.524;2023-01-08T01:03:47;10.13;;;7.40;;
53389;SDS011;39288;42.970;1.524;2023-01-08T01:04:47;11.80;;;8.50;;
53389;SDS011;39288;42.970;1.524;2023-01-08T01:05:48;12.70;;;9.33;;
53389;SDS011;39288;42.970;1.524;2023-01-08T01:06:49;11.73;;;8.53;;
53389;SDS011;39288;42.970;1.524;2023-01-08T01:07:49;12.67;;;9.20;;
53389;SDS011;39288;42.970;1.524;2023-01-08T01:08:50;13.50;;;10.13;;
53389;SDS011;39288;42.970;1.524;2023-01-08T01:09:51;12.02;;;8.45;;
53389;SDS011;39288;42.970;1.524;2023-01-08T01:10:51;12.50;;;8.97;;
53389;SDS011;39288;42.970;1.524;2023-01-08T01:11:52;12.67;;;9.20;;
53389;SDS011;39288;42.970;1.524;2023-01-08T01:12:52;10.77;;;8.27;;
53389;SDS011;39288;42.970;1.524;2023-01-08T01:13:54;14.57;;;9.50;;
53389;SDS011;39288;42.970;1.524;2023-01-08T01:14:55;13.35;;;8.52;;
53389;SDS011;39288;42.970;1.524;2023-01-08T01:15:57;14.70;;;10.83;;
53389;SDS011;39288;42.970;1.524;2023-01-08T01:16:58;20.52;;;15.60;;
53389;SDS011;39288;42.970;1.524;2023-01-08T01:17:58;14.40;;;9.27;;
53389;SDS011;39288;42.970;1.524;2023-01-08T01:18:59;11.83;;;8.07;;
53389;SDS011;39288;42.970;1.524;2023-01-08T01:19:59;15.10;;;9.90;;
53389;SDS011;39288;42.970;1.524;2023-01-08T01:20:59;13.50;;;8.73;;
53389;SDS011;39288;42.970;1.524;2023-01-08T01:22:00;10.40;;;7.20;;
53389;SDS011;39288;42.970;1.524;2023-01-08T01:23:01;10.40;;;7.35;;
53389;SDS011;39288;42.970;1.524;2023-01-08T01:24:04;9.15;;;6.30;;
53389;SDS011;39288;42.970;1.524;2023-01-08T01:25:05;11.00;;;7.13;;
53389;SDS011;39288;42.970;1.524;2023-01-08T01:26:12;13.82;;;6.95;;
53389;SDS011;39288;42.970;1.524;2023-01-08T01:27:15;12.77;;;6.45;;
53389;SDS011;39288;42.970;1.524;2023-01-08T01:28:15;12.90;;;7.27;;
53389;SDS011;39288;42.970;1.524;2023-01-08T01:29:16;9.63;;;6.30;;
53389;SDS011;39288;42.970;1.524;2023-01-08T01:30:16;10.33;;;5.73;;
53389;SDS011;39288;42.970;1.524;2023-01-08T01:31:17;10.83;;;6.63;;
53389;SDS011;39288;42.970;1.524;2023-01-08T01:32:18;10.83;;;6.70;;
53389;SDS011;39288;42.970;1.524;2023-01-08T01:33:18;9.30;;;5.90;;
53389;SDS011;39288;42.970;1.524;2023-01-08T01:34:19;13.23;;;6.07;;
53389;SDS011;39288;42.970;1.524;2023-01-08T01:35:20;9.73;;;6.40;;
53389;SDS011;39288;42.970;1.524;2023-01-08T01:36:20;9.50;;;5.95;;
53389;SDS011;39288;42.970;1.524;2023-01-08T01:37:22;9.60;;;5.82;;
53389;SDS011;39288;42.970;1.524;2023-01-08T01:38:23;9.40;;;6.43;;
53389;SDS011;39288;42.970;1.524;2023-01-08T01:39:23;10.40;;;6.20;;
53389;SDS011;39288;42.970;1.524;2023-01-08T01:40:24;9.07;;;6.20;;
53389;SDS011;39288;42.970;1.524;2023-01-08T01:41:32;9.63;;;6.07;;
53389;SDS011;39288;42.970;1.524;2023-01-08T01:42:36;21.55;;;17.25;;
53389;SDS011;39288;42.970;1.524;2023-01-08T01:43:40;18.33;;;14.30;;
53389;SDS011;39288;42.970;1.524;2023-01-08T01:44:42;18.58;;;14.57;;
53389;SDS011;39288;42.970;1.524;2023-01-08T01:45:45;18.98;;;13.00;;
53389;SDS011;39288;42.970;1.524;2023-01-08T01:46:46;16.20;;;10.73;;
53389;SDS011;39288;42.970;1.524;2023-01-08T01:47:50;10.25;;;7.90;;
53389;SDS011;39288;42.970;1.524;2023-01-08T01:49:09;13.68;;;8.75;;
53389;SDS011;39288;42.970;1.524;2023-01-08T01:50:12;10.30;;;6.97;;
53389;SDS011;39288;42.970;1.524;2023-01-08T01:51:37;10.93;;;7.32;;
53389;SDS011;39288;42.970;1.524;2023-01-08T01:52:44;13.93;;;8.23;;
53389;SDS011;39288;42.970;1.524;2023-01-08T01:53:47;13.45;;;9.10;;
53389;SDS011;39288;42.970;1.524;2023-01-08T01:54:48;12.27;;;8.17;;
53389;SDS011;39288;42.970;1.524;2023-01-08T01:55:50;14.40;;;8.00;;
53389;SDS011;39288;42.970;1.524;2023-01-08T01:56:50;11.77;;;7.63;;
53389;SDS011;39288;42.970;1.524;2023-01-08T01:57:52;8.07;;;5.90;;
53389;SDS011;39288;42.970;1.524;2023-01-08T01:58:59;10.43;;;7.15;;
53389;SDS011;39288;42.970;1.524;2023-01-08T01:59:59;12.10;;;8.03;;
53389;SDS011;39288;42.970;1.524;2023-01-08T02:01:03;12.05;;;7.75;;
53389;SDS011;39288;42.970;1.524;2023-01-08T02:02:05;9.70;;;6.65;;
53389;SDS011;39288;42.970;1.524;2023-01-08T02:03:05;10.60;;;6.90;;
53389;SDS011;39288;42.970;1.524;2023-01-08T02:05:11;11.90;;;7.15;;
53389;SDS011;39288;42.970;1.524;2023-01-08T02:07:30;9.88;;;6.40;;
53389;SDS011;39288;42.970;1.524;2023-01-08T02:10:11;10.63;;;7.13;;
53389;SDS011;39288;42.970;1.524;2023-01-08T02:11:27;10.60;;;7.43;;
53389;SDS011;39288;42.970;1.524;2023-01-08T02:12:32;13.63;;;7.90;;
53389;SDS011;39288;42.970;1.524;2023-01-08T02:13:37;13.07;;;9.48;;
53389;SDS011;39288;42.970;1.524;2023-01-08T02:14:41;11.82;;;8.27;;
53389;SDS011;39288;42.970;1.524;2023-01-08T02:15:47;10.30;;;6.93;;
53389;SDS011;39288;42.970;1.524;2023-01-08T02:16:56;10.82;;;7.40;;
53389;SDS011;39288;42.970;1.524;2023-01-08T02:18:28;11.85;;;6.47;;
53389;SDS011;39288;42.970;1.524;2023-01-08T02:20:06;12.02;;;6.55;;
53389;SDS011;39288;42.970;1.524;2023-01-08T02:21:09;10.15;;;6.15;;
53389;SDS011;39288;42.970;1.524;2023-01-08T02:26:58;8.65;;;5.95;;
53389;SDS011;39288;42.970;1.524;2023-01-08T02:27:59;8.45;;;4.55;;
53389;SDS011;39288;42.970;1.524;2023-01-08T02:30:04;9.18;;;5.55;;
53389;SDS011;39288;42.970;1.524;2023-01-08T02:31:05;8.68;;;5.18;;
53389;SDS011;39288;42.970;1.524;2023-01-08T02:32:06;8.60;;;4.90;;
53389;SDS011;39288;42.970;1.524;2023-01-08T02:33:06;7.97;;;5.30;;
53389;SDS011;39288;42.970;1.524;2023-01-08T02:34:08;6.83;;;4.60;;
53389;SDS011;39288;42.970;1.524;2023-01-08T02:35:09;7.32;;;4.25;;
53389;SDS011;39288;42.970;1.524;2023-01-08T02:36:52;7.83;;;4.53;;
53389;SDS011;39288;42.970;1.524;2023-01-08T02:37:36;11.13;;;5.47;;
53389;SDS011;39288;42.970;1.524;2023-01-08T02:40:21;8.13;;;4.82;;
53389;SDS011;39288;42.970;1.524;2023-01-08T02:44:09;7.35;;;5.70;;
53389;SDS011;39288;42.970;1.524;2023-01-08T02:46:34;10.88;;;6.70;;
53389;SDS011;39288;42.970;1.524;2023-01-08T02:47:45;9.63;;;6.20;;
53389;SDS011;39288;42.970;1.524;2023-01-08T02:48:52;8.82;;;6.22;;
53389;SDS011;39288;42.970;1.524;2023-01-08T02:49:59;8.27;;;5.65;;
53389;SDS011;39288;42.970;1.524;2023-01-08T02:51:10;8.52;;;6.13;;
53389;SDS011;39288;42.970;1.524;2023-01-08T02:52:14;9.00;;;5.00;;
53389;SDS011;39288;42.970;1.524;2023-01-08T02:53:17;11.02;;;7.20;;
53389;SDS011;39288;42.970;1.524;2023-01-08T02:54:25;10.20;;;6.60;;
53389;SDS011;39288;42.970;1.524;2023-01-08T02:55:27;10.40;;;6.95;;
53389;SDS011;39288;42.970;1.524;2023-01-08T02:56:35;9.32;;;6.30;;
53389;SDS011;39288;42.970;1.524;2023-01-08T02:57:36;10.93;;;7.05;;
53389;SDS011;39288;42.970;1.524;2023-01-08T02:58:37;9.63;;;7.07;;
53389;SDS011;39288;42.970;1.524;2023-01-08T02:59:38;9.35;;;7.43;;
53389;SDS011;39288;42.970;1.524;2023-01-08T03:01:43;9.82;;;5.90;;
53389;SDS011;39288;42.970;1.524;2023-01-08T03:02:44;10.65;;;6.25;;
53389;SDS011;39288;42.970;1.524;2023-01-08T03:03:48;10.18;;;5.80;;
53389;SDS011;39288;42.970;1.524;2023-01-08T03:04:52;11.50;;;6.35;;
53389;SDS011;39288;42.970;1.524;2023-01-08T03:05:55;8.32;;;6.22;;
53389;SDS011;39288;42.970;1.524;2023-01-08T03:06:58;10.15;;;6.22;;
53389;SDS011;39288;42.970;1.524;2023-01-08T03:07:58;9.93;;;6.07;;
53389;SDS011;39288;42.970;1.524;2023-01-08T03:08:59;6.63;;;4.27;;
53389;SDS011;39288;42.970;1.524;2023-01-08T03:10:00;8.02;;;5.53;;
53389;SDS011;39288;42.970;1.524;2023-01-08T03:11:07;9.57;;;6.20;;
53389;SDS011;39288;42.970;1.524;2023-01-08T03:12:14;9.52;;;5.40;;
53389;SDS011;39288;42.970;1.524;2023-01-08T03:13:20;8.32;;;5.72;;
53389;SDS011;39288;42.970;1.524;2023-01-08T03:14:27;9.02;;;5.80;;
53389;SDS011;39288;42.970;1.524;2023-01-08T03:15:49;10.80;;;6.32;;
53389;SDS011;39288;42.970;1.524;2023-01-08T03:16:56;8.88;;;5.65;;
53389;SDS011;39288;42.970;1.524;2023-01-08T03:17:59;6.97;;;3.65;;
53389;SDS011;39288;42.970;1.524;2023-01-08T03:19:22;7.15;;;3.90;;
53389;SDS011;39288;42.970;1.524;2023-01-08T03:20:35;6.68;;;4.28;;
53389;SDS011;39288;42.970;1.524;2023-01-08T03:21:36;7.75;;;4.07;;
53389;SDS011;39288;42.970;1.524;2023-01-08T03:22:38;8.95;;;4.75;;
53389;SDS011;39288;42.970;1.524;2023-01-08T03:23:41;6.57;;;3.88;;
53389;SDS011;39288;42.970;1.524;2023-01-08T03:24:44;9.98;;;5.40;;
53389;SDS011;39288;42.970;1.524;2023-01-08T03:25:47;7.47;;;3.75;;
53389;SDS011;39288;42.970;1.524;2023-01-08T03:26:48;5.83;;;4.30;;
53389;SDS011;39288;42.970;1.524;2023-01-08T03:27:51;6.00;;;3.58;;
53389;SDS011;39288;42.970;1.524;2023-01-08T03:29:00;7.10;;;3.50;;
53389;SDS011;39288;42.970;1.524;2023-01-08T03:30:02;9.27;;;5.97;;
53389;SDS011;39288;42.970;1.524;2023-01-08T03:32:05;15.48;;;9.82;;
53389;SDS011;39288;42.970;1.524;2023-01-08T03:33:09;12.57;;;6.55;;
53389;SDS011;39288;42.970;1.524;2023-01-08T03:35:11;7.95;;;4.32;;
53389;SDS011;39288;42.970;1.524;2023-01-08T03:36:15;8.75;;;5.10;;
53389;SDS011;39288;42.970;1.524;2023-01-08T03:37:19;5.68;;;3.35;;
53389;SDS011;39288;42.970;1.524;2023-01-08T03:38:26;7.88;;;3.83;;
53389;SDS011;39288;42.970;1.524;2023-01-08T03:41:00;8.68;;;5.40;;
53389;SDS011;39288;42.970;1.524;2023-01-08T03:42:05;9.18;;;5.70;;
53389;SDS011;39288;42.970;1.524;2023-01-08T03:43:08;9.65;;;5.95;;
53389;SDS011;39288;42.970;1.524;2023-01-08T03:44:08;11.00;;;7.20;;
53389;SDS011;39288;42.970;1.524;2023-01-08T03:45:09;10.37;;;6.03;;
53389;SDS011;39288;42.970;1.524;2023-01-08T03:46:11;7.73;;;4.50;;
53389;SDS011;39288;42.970;1.524;2023-01-08T03:47:14;10.30;;;3.83;;
53389;SDS011;39288;42.970;1.524;2023-01-08T03:48:15;3.50;;;2.72;;
53389;SDS011;39288;42.970;1.524;2023-01-08T03:49:17;6.18;;;3.75;;
53389;SDS011;39288;42.970;1.524;2023-01-08T03:50:20;6.45;;;4.53;;
53389;SDS011;39288;42.970;1.524;2023-01-08T03:51:22;5.05;;;3.30;;
53389;SDS011;39288;42.970;1.524;2023-01-08T03:52:23;6.60;;;3.50;;
53389;SDS011;39288;42.970;1.524;2023-01-08T03:53:26;5.40;;;2.58;;
53389;SDS011;39288;42.970;1.524;2023-01-08T03:54:30;5.68;;;3.13;;
53389;SDS011;39288;42.970;1.524;2023-01-08T03:55:32;5.10;;;3.60;;
53389;SDS011;39288;42.970;1.524;2023-01-08T03:56:33;5.60;;;3.37;;
53389;SDS011;39288;42.970;1.524;2023-01-08T03:57:33;6.27;;;3.73;;
53389;SDS011;39288;42.970;1.524;2023-01-08T03:58:34;6.60;;;3.67;;
53389;SDS011;39288;42.970;1.524;2023-01-08T03:59:34;6.17;;;4.17;;
53389;SDS011;39288;42.970;1.524;2023-01-08T04:00:35;6.03;;;4.00;;
53389;SDS011;39288;42.970;1.524;2023-01-08T04:01:35;7.73;;;4.23;;
53389;SDS011;39288;42.970;1.524;2023-01-08T04:02:35;6.80;;;3.77;;
53389;SDS011;39288;42.970;1.524;2023-01-08T04:03:36;6.03;;;3.83;;
53389;SDS011;39288;42.970;1.524;2023-01-08T04:04:36;6.43;;;4.15;;
53389;SDS011;39288;42.970;1.524;2023-01-08T04:05:37;5.97;;;3.70;;
53389;SDS011;39288;42.970;1.524;2023-01-08T04:06:38;8.13;;;3.67;;
53389;SDS011;39288;42.970;1.524;2023-01-08T04:07:38;5.43;;;3.77;;
53389;SDS011;39288;42.970;1.524;2023-01-08T04:08:39;7.10;;;4.00;;
53389;SDS011;39288;42.970;1.524;2023-01-08T04:09:39;6.77;;;3.33;;
53389;SDS011;39288;42.970;1.524;2023-01-08T04:10:40;6.03;;;4.10;;
53389;SDS011;39288;42.970;1.524;2023-01-08T04:11:40;4.60;;;3.43;;
53389;SDS011;39288;42.970;1.524;2023-01-08T04:12:41;4.80;;;3.30;;
53389;SDS011;39288;42.970;1.524;2023-01-08T04:13:42;5.05;;;3.67;;
53389;SDS011;39288;42.970;1.524;2023-01-08T04:14:42;7.17;;;3.70;;
53389;SDS011;39288;42.970;1.524;2023-01-08T04:15:49;6.40;;;3.60;;
53389;SDS011;39288;42.970;1.524;2023-01-08T04:16:50;10.95;;;7.47;;
53389;SDS011;39288;42.970;1.524;2023-01-08T04:17:51;7.33;;;5.47;;
53389;SDS011;39288;42.970;1.524;2023-01-08T04:18:52;6.43;;;4.75;;
53389;SDS011;39288;42.970;1.524;2023-01-08T04:19:53;5.37;;;3.50;;
53389;SDS011;39288;42.970;1.524;2023-01-08T04:20:53;6.23;;;3.77;;
53389;SDS011;39288;42.970;1.524;2023-01-08T04:21:54;6.53;;;3.23;;
53389;SDS011;39288;42.970;1.524;2023-01-08T04:22:54;5.37;;;3.10;;
53389;SDS011;39288;42.970;1.524;2023-01-08T04:23:55;5.43;;;2.97;;
53389;SDS011;39288;42.970;1.524;2023-01-08T04:24:56;4.80;;;3.33;;
53389;SDS011;39288;42.970;1.524;2023-01-08T04:25:56;6.87;;;3.40;;
53389;SDS011;39288;42.970;1.524;2023-01-08T04:26:57;16.73;;;6.50;;
53389;SDS011;39288;42.970;1.524;2023-01-08T04:27:57;7.53;;;4.60;;
53389;SDS011;39288;42.970;1.524;2023-01-08T04:28:58;5.03;;;3.10;;
53389;SDS011;39288;42.970;1.524;2023-01-08T04:29:58;5.60;;;3.13;;
53389;SDS011;39288;42.970;1.524;2023-01-08T04:30:59;7.20;;;2.70;;
53389;SDS011;39288;42.970;1.524;2023-01-08T04:31:59;3.73;;;2.40;;
53389;SDS011;39288;42.970;1.524;2023-01-08T04:33:00;4.23;;;2.83;;
53389;SDS011;39288;42.970;1.524;2023-01-08T04:34:00;5.10;;;2.90;;
53389;SDS011;39288;42.970;1.524;2023-01-08T04:35:01;6.03;;;3.25;;
53389;SDS011;39288;42.970;1.524;2023-01-08T04:36:02;4.67;;;3.03;;
53389;SDS011;39288;42.970;1.524;2023-01-08T04:38:03;18.33;;;10.77;;
53389;SDS011;39288;42.970;1.524;2023-01-08T04:39:04;10.70;;;5.77;;
53389;SDS011;39288;42.970;1.524;2023-01-08T04:40:05;6.93;;;4.53;;
53389;SDS011;39288;42.970;1.524;2023-01-08T04:41:05;11.27;;;4.53;;
53389;SDS011;39288;42.970;1.524;2023-01-08T04:42:06;6.73;;;4.50;;
53389;SDS011;39288;42.970;1.524;2023-01-08T04:43:06;14.43;;;4.93;;
53389;SDS011;39288;42.970;1.524;2023-01-08T04:44:07;6.20;;;4.60;;
53389;SDS011;39288;42.970;1.524;2023-01-08T04:45:08;5.33;;;3.73;;
53389;SDS011;39288;42.970;1.524;2023-01-08T04:46:09;8.70;;;4.63;;
53389;SDS011;39288;42.970;1.524;2023-01-08T04:47:09;5.87;;;3.93;;
53389;SDS011;39288;42.970;1.524;2023-01-08T04:48:10;7.37;;;4.20;;
53389;SDS011;39288;42.970;1.524;2023-01-08T04:49:10;6.55;;;3.80;;
53389;SDS011;39288;42.970;1.524;2023-01-08T04:50:11;7.20;;;4.20;;
53389;SDS011;39288;42.970;1.524;2023-01-08T04:51:11;5.90;;;4.40;;
53389;SDS011;39288;42.970;1.524;2023-01-08T04:52:12;8.03;;;4.67;;
53389;SDS011;39288;42.970;1.524;2023-01-08T04:53:12;6.07;;;4.20;;
53389;SDS011;39288;42.970;1.524;2023-01-08T04:54:13;6.20;;;4.33;;
53389;SDS011;39288;42.970;1.524;2023-01-08T04:55:14;5.80;;;4.10;;
53389;SDS011;39288;42.970;1.524;2023-01-08T04:56:14;6.03;;;4.10;;
53389;SDS011;39288;42.970;1.524;2023-01-08T04:57:14;6.13;;;4.17;;
53389;SDS011;39288;42.970;1.524;2023-01-08T04:58:15;7.10;;;4.67;;
53389;SDS011;39288;42.970;1.524;2023-01-08T04:59:16;5.73;;;3.97;;
53389;SDS011;39288;42.970;1.524;2023-01-08T05:00:16;7.88;;;5.20;;
53389;SDS011;39288;42.970;1.524;2023-01-08T05:01:18;9.70;;;5.30;;
53389;SDS011;39288;42.970;1.524;2023-01-08T05:02:20;7.90;;;5.03;;
53389;SDS011;39288;42.970;1.524;2023-01-08T05:03:20;6.90;;;5.00;;
53389;SDS011;39288;42.970;1.524;2023-01-08T05:04:21;6.90;;;4.72;;
53389;SDS011;39288;42.970;1.524;2023-01-08T05:05:21;9.00;;;5.07;;
53389;SDS011;39288;42.970;1.524;2023-01-08T05:06:22;7.73;;;5.20;;
53389;SDS011;39288;42.970;1.524;2023-01-08T05:07:22;6.57;;;4.20;;
53389;SDS011;39288;42.970;1.524;2023-01-08T05:08:23;5.90;;;4.18;;
53389;SDS011;39288;42.970;1.524;2023-01-08T05:09:23;6.73;;;4.60;;
53389;SDS011;39288;42.970;1.524;2023-01-08T05:10:24;5.70;;;4.37;;
53389;SDS011;39288;42.970;1.524;2023-01-08T05:11:25;7.82;;;4.65;;
53389;SDS011;39288;42.970;1.524;2023-01-08T05:12:25;8.23;;;5.00;;
53389;SDS011;39288;42.970;1.524;2023-01-08T05:13:26;5.90;;;4.47;;
53389;SDS011;39288;42.970;1.524;2023-01-08T05:14:26;6.77;;;4.57;;
53389;SDS011;39288;42.970;1.524;2023-01-08T05:15:27;6.13;;;4.60;;
53389;SDS011;39288;42.970;1.524;2023-01-08T05:16:29;7.10;;;4.37;;
53389;SDS011;39288;42.970;1.524;2023-01-08T05:17:31;6.63;;;4.65;;
53389;SDS011;39288;42.970;1.524;2023-01-08T05:18:32;7.43;;;5.47;;
53389;SDS011;39288;42.970;1.524;2023-01-08T05:19:32;7.67;;;5.43;;
53389;SDS011;39288;42.970;1.524;2023-01-08T05:20:33;8.77;;;5.23;;
53389;SDS011;39288;42.970;1.524;2023-01-08T05:21:33;6.03;;;4.80;;
53389;SDS011;39288;42.970;1.524;2023-01-08T05:22:34;7.27;;;4.73;;
53389;SDS011;39288;42.970;1.524;2023-01-08T05:23:34;7.53;;;4.93;;
53389;SDS011;39288;42.970;1.524;2023-01-08T05:24:35;6.50;;;4.97;;
53389;SDS011;39288;42.970;1.524;2023-01-08T05:25:36;5.73;;;4.43;;
53389;SDS011;39288;42.970;1.524;2023-01-08T05:26:36;6.85;;;4.70;;
53389;SDS011;39288;42.970;1.524;2023-01-08T05:27:37;6.97;;;4.73;;
53389;SDS011;39288;42.970;1.524;2023-01-08T05:28:37;7.00;;;5.20;;
53389;SDS011;39288;42.970;1.524;2023-01-08T05:29:37;7.93;;;5.90;;
53389;SDS011;39288;42.970;1.524;2023-01-08T05:30:38;7.77;;;5.70;;
53389;SDS011;39288;42.970;1.524;2023-01-08T05:31:38;9.23;;;5.70;;
53389;SDS011;39288;42.970;1.524;2023-01-08T05:32:39;7.70;;;5.30;;
53389;SDS011;39288;42.970;1.524;2023-01-08T05:33:39;8.23;;;4.90;;
53389;SDS011;39288;42.970;1.524;2023-01-08T05:34:40;7.63;;;5.80;;
53389;SDS011;39288;42.970;1.524;2023-01-08T05:35:40;12.50;;;4.93;;
53389;SDS011;39288;42.970;1.524;2023-01-08T05:36:41;9.73;;;5.93;;
53389;SDS011;39288;42.970;1.524;2023-01-08T05:37:42;7.45;;;5.30;;
53389;SDS011;39288;42.970;1.524;2023-01-08T05:38:42;9.77;;;5.53;;
53389;SDS011;39288;42.970;1.524;2023-01-08T05:39:43;8.70;;;5.37;;
53389;SDS011;39288;42.970;1.524;2023-01-08T05:40:43;6.77;;;5.17;;
53389;SDS011;39288;42.970;1.524;2023-01-08T05:41:44;7.07;;;4.67;;
53389;SDS011;39288;42.970;1.524;2023-01-08T05:42:44;10.50;;;5.13;;
53389;SDS011;39288;42.970;1.524;2023-01-08T05:43:45;8.00;;;5.30;;
53389;SDS011;39288;42.970;1.524;2023-01-08T05:44:45;7.43;;;5.50;;
53389;SDS011;39288;42.970;1.524;2023-01-08T05:45:46;9.73;;;5.73;;
53389;SDS011;39288;42.970;1.524;2023-01-08T05:46:46;9.23;;;5.32;;
53389;SDS011;39288;42.970;1.524;2023-01-08T05:47:47;8.02;;;4.70;;
53389;SDS011;39288;42.970;1.524;2023-01-08T05:48:48;7.97;;;5.50;;
53389;SDS011;39288;42.970;1.524;2023-01-08T05:49:48;7.33;;;5.27;;
53389;SDS011;39288;42.970;1.524;2023-01-08T05:50:48;7.00;;;5.87;;
53389;SDS011;39288;42.970;1.524;2023-01-08T05:51:49;7.20;;;5.73;;
53389;SDS011;39288;42.970;1.524;2023-01-08T05:52:50;7.03;;;5.20;;
53389;SDS011;39288;42.970;1.524;2023-01-08T05:53:50;8.07;;;5.73;;
53389;SDS011;39288;42.970;1.524;2023-01-08T05:54:51;10.37;;;6.10;;
53389;SDS011;39288;42.970;1.524;2023-01-08T05:55:56;7.83;;;5.80;;
53389;SDS011;39288;42.970;1.524;2023-01-08T05:56:57;8.38;;;5.75;;
53389;SDS011;39288;42.970;1.524;2023-01-08T05:58:01;7.80;;;5.23;;
53389;SDS011;39288;42.970;1.524;2023-01-08T05:59:04;8.38;;;5.50;;
53389;SDS011;39288;42.970;1.524;2023-01-08T06:00:05;9.13;;;6.13;;
53389;SDS011;39288;42.970;1.524;2023-01-08T06:01:11;7.60;;;6.00;;
53389;SDS011;39288;42.970;1.524;2023-01-08T06:02:15;7.90;;;5.88;;
53389;SDS011;39288;42.970;1.524;2023-01-08T06:03:15;9.13;;;6.37;;
53389;SDS011;39288;42.970;1.524;2023-01-08T06:04:19;9.10;;;5.63;;
53389;SDS011;39288;42.970;1.524;2023-01-08T06:05:20;9.23;;;6.37;;
53389;SDS011;39288;42.970;1.524;2023-01-08T06:06:20;9.60;;;6.77;;
53389;SDS011;39288;42.970;1.524;2023-01-08T06:07:21;9.50;;;5.83;;
53389;SDS011;39288;42.970;1.524;2023-01-08T06:08:21;9.17;;;5.60;;
53389;SDS011;39288;42.970;1.524;2023-01-08T06:09:22;7.50;;;5.57;;
53389;SDS011;39288;42.970;1.524;2023-01-08T06:10:22;7.93;;;5.97;;
53389;SDS011;39288;42.970;1.524;2023-01-08T06:11:23;8.70;;;6.10;;
53389;SDS011;39288;42.970;1.524;2023-01-08T06:12:23;10.53;;;6.10;;
53389;SDS011;39288;42.970;1.524;2023-01-08T06:13:24;5.87;;;5.07;;
53389;SDS011;39288;42.970;1.524;2023-01-08T06:14:24;12.13;;;6.03;;
53389;SDS011;39288;42.970;1.524;2023-01-08T06:15:25;15.23;;;5.73;;
53389;SDS011;39288;42.970;1.524;2023-01-08T06:16:25;8.60;;;5.30;;
53389;SDS011;39288;42.970;1.524;2023-01-08T06:17:26;7.63;;;5.27;;
53389;SDS011;39288;42.970;1.524;2023-01-08T06:18:26;9.50;;;6.47;;
53389;SDS011;39288;42.970;1.524;2023-01-08T06:19:28;10.70;;;5.63;;
53389;SDS011;39288;42.970;1.524;2023-01-08T06:20:28;11.10;;;6.73;;
53389;SDS011;39288;42.970;1.524;2023-01-08T06:21:28;8.87;;;6.23;;
53389;SDS011;39288;42.970;1.524;2023-01-08T06:22:29;9.03;;;6.07;;
53389;SDS011;39288;42.970;1.524;2023-01-08T06:23:32;7.30;;;5.53;;
53389;SDS011;39288;42.970;1.524;2023-01-08T06:24:33;12.15;;;6.57;;
53389;SDS011;39288;42.970;1.524;2023-01-08T06:25:33;9.57;;;5.97;;
53389;SDS011;39288;42.970;1.524;2023-01-08T06:26:34;9.60;;;5.57;;
53389;SDS011;39288;42.970;1.524;2023-01-08T06:27:35;11.17;;;7.17;;
53389;SDS011;39288;42.970;1.524;2023-01-08T06:28:35;8.80;;;6.33;;
53389;SDS011;39288;42.970;1.524;2023-01-08T06:29:36;8.17;;;5.77;;
53389;SDS011;39288;42.970;1.524;2023-01-08T06:30:36;11.57;;;6.43;;
53389;SDS011;39288;42.970;1.524;2023-01-08T06:31:37;12.33;;;7.80;;
53389;SDS011;39288;42.970;1.524;2023-01-08T06:32:37;10.07;;;7.30;;
53389;SDS011;39288;42.970;1.524;2023-01-08T06:33:37;10.57;;;8.00;;